createdAt,value
2018-10-18T00:01:50.567Z,15.93
2018-10-18T00:03:54.235Z,16.20
2018-10-18T00:05:58.052Z,16.20
2018-10-18T00:08:01.869Z,16.93
2018-10-18T00:10:06.663Z,20.03
2018-10-18T00:12:10.505Z,19.90
2018-10-18T00:14:14.148Z,16.90
2018-10-18T00:16:17.827Z,19.97
2018-10-18T00:18:21.629Z,20.83
2018-10-18T00:20:25.479Z,20.27
2018-10-18T00:22:29.224Z,19.63
2018-10-18T00:24:32.955Z,21.80
2018-10-18T00:26:36.711Z,17.10
2018-10-18T00:28:40.466Z,23.10
2018-10-18T00:30:44.168Z,21.37
2018-10-18T00:32:47.891Z,20.60
2018-10-18T00:34:51.578Z,17.13
2018-10-18T00:36:55.362Z,15.97
2018-10-18T00:38:59.112Z,19.93
2018-10-18T00:41:02.905Z,17.47
2018-10-18T00:43:06.668Z,17.00
2018-10-18T00:45:12.230Z,19.00
2018-10-18T00:47:16.452Z,15.63
2018-10-18T00:49:23.447Z,16.43
2018-10-18T00:51:30.001Z,17.47
2018-10-18T00:53:33.703Z,16.60
2018-10-18T00:55:37.393Z,19.17
2018-10-18T00:57:41.926Z,16.53
2018-10-18T00:59:45.660Z,17.83
2018-10-18T01:01:49.363Z,20.80
2018-10-18T01:03:53.072Z,16.50
2018-10-18T01:05:56.832Z,19.40
2018-10-18T01:08:00.554Z,15.00
2018-10-18T01:10:04.315Z,16.87
2018-10-18T01:12:08.073Z,15.30
2018-10-18T01:14:11.991Z,16.10
2018-10-18T01:16:15.824Z,22.47
2018-10-18T01:18:19.547Z,16.73
2018-10-18T01:20:23.249Z,13.53
2018-10-18T01:22:27.010Z,25.00
2018-10-18T01:24:30.743Z,19.73
2018-10-18T01:26:34.441Z,18.97
2018-10-18T01:28:38.172Z,14.60
2018-10-18T01:30:41.893Z,18.73
2018-10-18T01:32:45.593Z,15.50
2018-10-18T01:34:51.659Z,16.87
2018-10-18T01:36:55.458Z,18.07
2018-10-18T01:38:59.136Z,16.57
2018-10-18T01:41:02.918Z,19.13
2018-10-18T01:43:06.759Z,15.73
2018-10-18T01:45:10.486Z,20.33
2018-10-18T01:47:14.201Z,15.93
2018-10-18T01:49:17.914Z,14.20
2018-10-18T01:51:21.650Z,14.10
2018-10-18T01:53:25.352Z,19.53
2018-10-18T01:55:29.044Z,17.77
2018-10-18T01:57:32.752Z,14.20
2018-10-18T01:59:36.469Z,16.70
2018-10-18T02:01:40.150Z,18.27
2018-10-18T02:03:44.005Z,20.10
2018-10-18T02:05:47.726Z,17.67
2018-10-18T02:07:51.482Z,17.37
2018-10-18T02:09:55.152Z,17.63
2018-10-18T02:11:58.849Z,16.77
2018-10-18T02:14:02.552Z,17.73
2018-10-18T02:16:07.075Z,16.00
2018-10-18T02:18:10.839Z,17.37
2018-10-18T02:20:14.552Z,18.10
2018-10-18T02:22:18.424Z,17.03
2018-10-18T02:24:22.105Z,15.83
2018-10-18T02:26:25.870Z,17.47
2018-10-18T02:28:29.668Z,16.80
2018-10-18T02:30:33.420Z,13.97
2018-10-18T02:32:37.142Z,15.77
2018-10-18T02:34:40.819Z,13.33
2018-10-18T02:36:44.548Z,15.97
2018-10-18T02:38:48.299Z,15.73
2018-10-18T02:40:51.991Z,18.87
2018-10-18T02:42:55.728Z,15.10
2018-10-18T02:44:59.436Z,13.90
2018-10-18T02:47:03.372Z,19.00
2018-10-18T02:49:07.103Z,20.90
2018-10-18T02:51:10.768Z,18.00
2018-10-18T02:53:14.480Z,14.10
2018-10-18T02:55:18.136Z,15.73
2018-10-18T02:57:21.792Z,21.03
2018-10-18T02:59:25.558Z,18.20
2018-10-18T03:01:29.317Z,16.53
2018-10-18T03:03:33.021Z,15.80
2018-10-18T03:05:36.752Z,16.67
2018-10-18T03:07:40.392Z,17.00
2018-10-18T03:09:44.107Z,14.33
2018-10-18T03:11:47.826Z,17.00
2018-10-18T03:13:51.532Z,18.70
2018-10-18T03:15:55.214Z,16.63
2018-10-18T03:17:58.972Z,18.63
2018-10-18T03:20:02.661Z,15.83
2018-10-18T03:22:06.368Z,20.83
2018-10-18T03:24:10.129Z,18.17
2018-10-18T03:26:13.798Z,17.80
2018-10-18T03:28:17.972Z,18.00
2018-10-18T03:30:21.774Z,19.73
2018-10-18T03:32:25.436Z,16.77
2018-10-18T03:34:29.129Z,16.93
2018-10-18T03:36:32.904Z,16.97
2018-10-18T03:38:36.638Z,17.00
2018-10-18T03:40:40.338Z,27.13
2018-10-18T03:42:44.127Z,15.87
2018-10-18T03:44:47.936Z,15.27
2018-10-18T03:46:51.898Z,15.90
2018-10-18T03:48:55.919Z,17.80
2018-10-18T03:50:59.776Z,16.83
2018-10-18T03:53:03.571Z,18.50
2018-10-18T03:55:07.891Z,20.27
2018-10-18T03:57:11.609Z,15.07
2018-10-18T03:59:15.364Z,16.47
2018-10-18T04:01:19.240Z,18.03
2018-10-18T04:03:22.928Z,20.60
2018-10-18T04:05:26.821Z,17.23
2018-10-18T04:07:30.570Z,22.47
2018-10-18T04:09:34.285Z,18.37
2018-10-18T04:11:38.271Z,19.40
2018-10-18T04:13:42.033Z,15.53
2018-10-18T04:15:45.752Z,18.90
2018-10-18T04:17:49.626Z,18.93
2018-10-18T04:19:53.744Z,15.03
2018-10-18T04:21:57.519Z,16.87
2018-10-18T04:24:01.248Z,17.00
2018-10-18T04:26:05.242Z,18.10
2018-10-18T04:28:09.768Z,17.97
2018-10-18T04:30:13.527Z,15.27
2018-10-18T04:32:17.185Z,18.47
2018-10-18T04:34:20.929Z,15.47
2018-10-18T04:36:24.740Z,16.60
2018-10-18T04:38:28.895Z,20.97
2018-10-18T04:40:32.681Z,19.70
2018-10-18T04:42:36.470Z,25.10
2018-10-18T04:44:40.203Z,17.67
2018-10-18T04:46:43.956Z,19.93
2018-10-18T04:48:47.797Z,17.00
2018-10-18T04:50:51.499Z,20.20
2018-10-18T04:52:55.368Z,20.40
2018-10-18T04:54:59.183Z,15.30
2018-10-18T04:57:03.352Z,17.73
2018-10-18T04:59:07.126Z,14.70
2018-10-18T05:01:10.982Z,16.70
2018-10-18T05:03:14.677Z,17.60
2018-10-18T05:05:29.532Z,16.90
2018-10-18T05:07:33.298Z,23.07
2018-10-18T05:09:37.126Z,18.83
2018-10-18T05:11:41.012Z,18.67
2018-10-18T05:13:44.778Z,17.67
2018-10-18T05:15:48.682Z,19.60
2018-10-18T05:17:52.524Z,19.73
2018-10-18T05:19:56.315Z,17.40
2018-10-18T05:22:00.221Z,18.10
2018-10-18T05:24:04.211Z,20.23
2018-10-18T05:26:08.486Z,21.23
2018-10-18T05:28:12.326Z,19.30
2018-10-18T05:30:16.160Z,18.90
2018-10-18T05:32:19.922Z,21.80
2018-10-18T05:34:23.736Z,22.43
2018-10-18T05:36:27.635Z,17.17
2018-10-18T05:38:31.511Z,20.20
2018-10-18T05:40:35.323Z,17.20
2018-10-18T05:42:39.117Z,22.63
2018-10-18T05:44:43.015Z,30.53
2018-10-18T05:46:46.880Z,26.73
2018-10-18T05:48:50.616Z,27.20
2018-10-18T05:50:54.528Z,23.40
2018-10-18T05:52:58.792Z,38.57
2018-10-18T05:55:02.634Z,32.97
2018-10-18T05:57:06.419Z,46.50
2018-10-18T05:59:10.221Z,37.13
2018-10-18T06:01:14.099Z,36.77
2018-10-18T06:03:17.734Z,43.10
2018-10-18T06:05:21.520Z,33.77
2018-10-18T06:07:25.408Z,39.13
2018-10-18T06:09:31.977Z,40.77
2018-10-18T06:11:35.798Z,35.87
2018-10-18T06:13:39.724Z,36.03
2018-10-18T06:15:43.523Z,28.90
2018-10-18T06:17:47.276Z,28.77
2018-10-18T06:19:51.020Z,52.67
2018-10-18T06:21:54.905Z,33.30
2018-10-18T06:23:59.263Z,27.07
2018-10-18T06:26:03.193Z,24.67
2018-10-18T06:28:06.990Z,21.40
2018-10-18T06:30:12.922Z,19.87
2018-10-18T06:32:17.096Z,23.83
2018-10-18T06:34:20.876Z,19.60
2018-10-18T06:36:24.647Z,25.60
2018-10-18T06:38:28.383Z,23.27
2018-10-18T06:40:32.162Z,27.10
2018-10-18T06:42:36.523Z,24.20
2018-10-18T06:44:40.310Z,24.50
2018-10-18T06:46:44.099Z,21.13
2018-10-18T06:48:47.862Z,25.87
2018-10-18T06:50:51.697Z,19.97
2018-10-18T06:52:55.542Z,23.87
2018-10-18T06:54:59.313Z,28.70
2018-10-18T06:57:03.132Z,20.97
2018-10-18T06:59:06.900Z,22.33
2018-10-18T07:01:10.747Z,24.83
2018-10-18T07:03:14.590Z,24.73
2018-10-18T07:05:18.631Z,20.87
2018-10-18T07:07:22.382Z,26.27
2018-10-18T07:09:26.136Z,27.63
2018-10-18T07:11:29.923Z,24.13
2018-10-18T07:13:33.628Z,20.77
2018-10-18T07:15:37.381Z,30.47
2018-10-18T07:17:42.090Z,27.13
2018-10-18T07:19:45.806Z,29.93
2018-10-18T07:21:49.624Z,30.70
2018-10-18T07:23:53.380Z,29.40
2018-10-18T07:25:57.269Z,24.60
2018-10-18T07:28:01.012Z,43.23
2018-10-18T07:30:06.351Z,24.43
2018-10-18T07:32:10.069Z,29.80
2018-10-18T07:34:13.762Z,31.13
2018-10-18T07:36:17.641Z,28.77
2018-10-18T07:38:21.557Z,36.57
2018-10-18T07:40:25.265Z,32.63
2018-10-18T07:42:29.084Z,38.07
2018-10-18T07:44:32.778Z,35.10
2018-10-18T07:46:36.490Z,30.73
2018-10-18T07:48:40.256Z,31.50
2018-10-18T07:50:44.078Z,30.37
2018-10-18T07:52:48.650Z,26.30
2018-10-18T07:54:52.453Z,30.60
2018-10-18T07:56:56.322Z,31.30
2018-10-18T07:59:00.436Z,33.40
2018-10-18T08:01:04.274Z,32.70
2018-10-18T08:03:08.214Z,34.00
2018-10-18T08:05:12.336Z,31.23
2018-10-18T08:07:16.722Z,29.53
2018-10-18T08:09:21.461Z,37.27
2018-10-18T08:11:25.250Z,33.33
2018-10-18T08:13:29.090Z,33.40
2018-10-18T08:15:32.839Z,37.43
2018-10-18T08:17:36.708Z,37.67
2018-10-18T08:19:40.486Z,38.93
2018-10-18T08:21:44.274Z,29.40
2018-10-18T08:23:48.100Z,31.43
2018-10-18T08:25:51.893Z,30.50
2018-10-18T08:27:55.673Z,41.10
2018-10-18T08:29:59.417Z,38.17
2018-10-18T08:32:03.222Z,48.17
2018-10-18T08:34:06.963Z,35.50
2018-10-18T08:36:10.798Z,29.83
2018-10-18T08:38:14.659Z,34.93
2018-10-18T08:40:18.443Z,31.20
2018-10-18T08:42:22.193Z,35.77
2018-10-18T08:44:26.045Z,34.93
2018-10-18T08:46:29.778Z,33.90
2018-10-18T08:48:33.616Z,35.63
2018-10-18T08:50:37.462Z,30.63
2018-10-18T08:52:41.242Z,35.87
2018-10-18T08:54:45.060Z,36.03
2018-10-18T08:56:48.862Z,38.87
2018-10-18T08:58:52.664Z,35.80
2018-10-18T09:00:56.557Z,34.80
2018-10-18T09:03:00.968Z,36.83
2018-10-18T09:05:05.003Z,41.73
2018-10-18T09:07:08.854Z,36.50
2018-10-18T09:09:12.701Z,37.83
2018-10-18T09:11:16.478Z,39.90
2018-10-18T09:13:20.287Z,52.73
2018-10-18T09:15:24.043Z,34.00
2018-10-18T09:17:28.681Z,47.30
2018-10-18T09:19:32.441Z,38.40
2018-10-18T09:21:37.010Z,46.80
2018-10-18T09:23:40.837Z,36.37
2018-10-18T09:25:44.580Z,36.00
2018-10-18T09:27:48.534Z,35.53
2018-10-18T09:29:52.261Z,34.90
2018-10-18T09:31:56.036Z,32.70
2018-10-18T09:33:59.756Z,37.43
2018-10-18T09:36:03.512Z,33.57
2018-10-18T09:38:07.418Z,42.50
2018-10-18T09:40:11.848Z,43.70
2018-10-18T09:42:15.588Z,39.87
2018-10-18T09:44:19.345Z,39.90
2018-10-18T09:46:23.126Z,39.63
2018-10-18T09:48:26.886Z,33.93
2018-10-18T09:50:30.691Z,32.60
2018-10-18T09:52:34.421Z,37.03
2018-10-18T09:54:38.175Z,34.37
2018-10-18T09:56:41.907Z,41.47
2018-10-18T09:58:45.608Z,35.57
2018-10-18T10:00:54.544Z,32.63
2018-10-18T10:03:03.417Z,34.87
2018-10-18T10:05:07.122Z,35.50
2018-10-18T10:07:10.934Z,31.80
2018-10-18T10:09:14.702Z,39.83
2018-10-18T10:11:18.508Z,39.63
2018-10-18T10:13:22.379Z,36.10
2018-10-18T10:15:26.724Z,36.83
2018-10-18T10:17:30.534Z,33.70
2018-10-18T10:19:34.332Z,34.27
2018-10-18T10:21:38.054Z,41.60
2018-10-18T10:23:41.873Z,35.70
2018-10-18T10:25:45.765Z,37.73
2018-10-18T10:27:49.521Z,45.13
2018-10-18T10:29:53.321Z,36.17
2018-10-18T10:31:57.391Z,34.67
2018-10-18T10:34:01.169Z,36.40
2018-10-18T10:36:05.388Z,34.77
2018-10-18T10:38:09.152Z,34.20
2018-10-18T10:40:13.288Z,34.93
2018-10-18T10:42:17.170Z,35.20
2018-10-18T10:44:20.977Z,37.93
2018-10-18T10:46:24.670Z,42.53
2018-10-18T10:48:28.441Z,36.60
2018-10-18T10:50:32.193Z,33.80
2018-10-18T10:52:36.811Z,41.77
2018-10-18T10:54:40.645Z,50.80
2018-10-18T10:56:44.409Z,38.57
2018-10-18T10:58:48.167Z,33.53
2018-10-18T11:01:09.139Z,38.50
2018-10-18T11:03:13.332Z,41.07
2018-10-18T11:05:17.159Z,34.57
2018-10-18T11:07:20.945Z,37.13
2018-10-18T11:09:24.817Z,35.03
2018-10-18T11:11:29.006Z,36.83
2018-10-18T11:13:32.794Z,37.23
2018-10-18T11:15:36.579Z,34.10
2018-10-18T11:17:40.277Z,40.73
2018-10-18T11:19:44.062Z,39.03
2018-10-18T11:21:47.922Z,34.60
2018-10-18T11:23:51.659Z,36.13
2018-10-18T11:25:56.361Z,36.43
2018-10-18T11:28:00.110Z,38.27
2018-10-18T11:30:03.968Z,36.40
2018-10-18T11:32:07.827Z,37.37
2018-10-18T11:34:11.526Z,37.17
2018-10-18T11:36:15.398Z,48.30
2018-10-18T11:38:19.131Z,44.00
2018-10-18T11:40:23.970Z,42.93
2018-10-18T11:42:28.718Z,42.23
2018-10-18T11:44:37.663Z,40.27
2018-10-18T11:46:41.413Z,40.20
2018-10-18T11:48:45.249Z,39.47
2018-10-18T11:50:49.031Z,40.00
2018-10-18T11:52:52.759Z,38.80
2018-10-18T11:54:56.614Z,44.17
2018-10-18T11:57:00.469Z,41.47
2018-10-18T11:59:04.301Z,49.37
2018-10-18T12:01:08.124Z,34.03
2018-10-18T12:03:11.889Z,41.80
2018-10-18T12:05:15.863Z,37.70
2018-10-18T12:07:19.615Z,38.33
2018-10-18T12:09:23.378Z,44.17
2018-10-18T12:11:27.201Z,35.33
2018-10-18T12:13:31.057Z,32.43
2018-10-18T12:15:34.839Z,40.17
2018-10-18T12:17:38.657Z,28.33
2018-10-18T12:19:42.474Z,30.33
2018-10-18T12:21:46.289Z,27.17
2018-10-18T12:23:50.129Z,26.70
2018-10-18T12:25:53.993Z,26.13
2018-10-18T12:27:57.725Z,32.17
2018-10-18T12:30:01.783Z,33.77
2018-10-18T12:32:05.611Z,30.37
2018-10-18T12:34:09.413Z,23.40
2018-10-18T12:36:13.181Z,26.73
2018-10-18T12:38:17.134Z,32.40
2018-10-18T12:40:20.878Z,23.70
2018-10-18T12:42:25.186Z,29.93
2018-10-18T12:44:33.162Z,31.73
2018-10-18T12:46:36.993Z,29.33
2018-10-18T12:48:40.822Z,30.13
2018-10-18T12:50:44.525Z,32.77
2018-10-18T12:52:48.324Z,26.90
2018-10-18T12:54:52.097Z,29.03
2018-10-18T12:56:55.883Z,22.03
2018-10-18T12:58:59.689Z,28.80
2018-10-18T13:01:03.459Z,23.27
2018-10-18T13:03:07.245Z,23.60
2018-10-18T13:05:11.620Z,29.90
2018-10-18T13:07:15.778Z,26.27
2018-10-18T13:09:19.579Z,24.40
2018-10-18T13:11:23.332Z,27.40
2018-10-18T13:13:27.495Z,22.00
2018-10-18T13:15:31.285Z,21.60
2018-10-18T13:17:35.032Z,21.10
2018-10-18T13:19:38.766Z,22.20
2018-10-18T13:21:42.721Z,28.20
2018-10-18T13:23:48.238Z,21.73
2018-10-18T13:25:52.067Z,29.73
2018-10-18T13:27:55.864Z,26.23
2018-10-18T13:29:59.584Z,23.63
2018-10-18T13:32:03.383Z,28.87
2018-10-18T13:34:07.357Z,23.70
2018-10-18T13:36:11.946Z,30.07
2018-10-18T13:38:15.714Z,23.67
2018-10-18T13:40:19.423Z,25.00
2018-10-18T13:42:23.112Z,25.67
2018-10-18T13:44:26.813Z,48.40
2018-10-18T13:46:30.585Z,24.37
2018-10-18T13:48:34.297Z,26.13
2018-10-18T13:50:38.005Z,26.60
2018-10-18T13:52:41.697Z,34.80
2018-10-18T13:54:45.449Z,35.27
2018-10-18T13:56:49.160Z,34.07
2018-10-18T13:58:52.943Z,27.83
2018-10-18T14:00:56.662Z,31.50
2018-10-18T14:03:00.372Z,26.10
2018-10-18T14:05:04.166Z,25.10
2018-10-18T14:07:07.855Z,30.23
2018-10-18T14:09:11.606Z,26.10
2018-10-18T14:11:15.799Z,36.40
2018-10-18T14:13:19.466Z,29.97
2018-10-18T14:15:23.179Z,39.47
2018-10-18T14:17:27.067Z,24.40
2018-10-18T14:19:33.625Z,25.80
2018-10-18T14:21:37.358Z,30.43
2018-10-18T14:23:41.063Z,28.47
2018-10-18T14:25:44.816Z,38.93
2018-10-18T14:27:48.541Z,31.43
2018-10-18T14:29:52.434Z,30.53
2018-10-18T14:31:56.124Z,26.87
2018-10-18T14:33:59.909Z,28.60
2018-10-18T14:36:03.588Z,28.43
2018-10-18T14:38:07.667Z,51.87
2018-10-18T14:40:12.177Z,25.40
2018-10-18T14:42:15.949Z,24.03
2018-10-18T14:44:19.702Z,27.77
2018-10-18T14:46:23.399Z,23.63
2018-10-18T14:48:27.174Z,26.63
2018-10-18T14:50:31.020Z,25.40
2018-10-18T14:52:34.635Z,40.80
2018-10-18T14:54:38.352Z,28.70
2018-10-18T14:56:42.083Z,34.13
2018-10-18T14:58:45.756Z,31.43
2018-10-18T15:00:49.493Z,36.60
2018-10-18T15:02:53.203Z,30.40
2018-10-18T15:04:57.037Z,31.20
2018-10-18T15:07:00.711Z,37.00
2018-10-18T15:09:06.520Z,39.63
2018-10-18T15:11:10.346Z,35.67
2018-10-18T15:13:14.080Z,41.53
2018-10-18T15:15:17.858Z,35.37
2018-10-18T15:17:21.568Z,38.03
2018-10-18T15:19:25.287Z,34.40
2018-10-18T15:21:29.048Z,39.30
2018-10-18T15:23:32.765Z,39.10
2018-10-18T15:25:36.742Z,42.03
2018-10-18T15:27:40.871Z,36.53
2018-10-18T15:29:45.274Z,40.97
2018-10-18T15:31:49.456Z,40.80
2018-10-18T15:33:53.245Z,36.60
2018-10-18T15:35:57.028Z,47.60
2018-10-18T15:38:00.842Z,45.40
2018-10-18T15:40:04.969Z,44.60
2018-10-18T15:42:08.788Z,40.43
2018-10-18T15:44:13.054Z,41.97
2018-10-18T15:46:17.705Z,50.20
2018-10-18T15:48:23.115Z,57.33
2018-10-18T15:50:28.196Z,44.53
2018-10-18T15:52:36.268Z,48.17
2018-10-18T15:54:41.379Z,64.50
2018-10-18T15:56:45.333Z,46.93
2018-10-18T15:58:49.052Z,51.47
2018-10-18T16:00:54.843Z,44.47
2018-10-18T16:02:58.683Z,52.93
2018-10-18T16:05:04.045Z,44.77
2018-10-18T16:07:08.079Z,64.67
2018-10-18T16:09:14.317Z,55.43
2018-10-18T16:11:23.433Z,50.13
2018-10-18T16:13:28.686Z,51.07
2018-10-18T16:15:32.593Z,50.33
2018-10-18T16:17:36.799Z,59.20
2018-10-18T16:19:40.811Z,60.13
2018-10-18T16:21:46.044Z,47.47
2018-10-18T16:23:49.773Z,53.47
2018-10-18T16:25:53.796Z,45.57
2018-10-18T16:28:05.144Z,46.50
2018-10-18T16:30:18.321Z,60.50
2018-10-18T16:32:22.188Z,46.70
2018-10-18T16:34:25.952Z,49.50
2018-10-18T16:36:29.711Z,58.13
2018-10-18T16:38:33.434Z,51.33
2018-10-18T16:40:37.171Z,44.43
2018-10-18T16:42:42.218Z,43.97
2018-10-18T16:44:45.969Z,57.03
2018-10-18T16:46:49.729Z,53.73
2018-10-18T16:48:53.420Z,50.27
2018-10-18T16:50:57.339Z,49.30
2018-10-18T16:53:01.132Z,50.80
2018-10-18T16:55:05.629Z,52.20
2018-10-18T16:57:09.756Z,51.03
2018-10-18T16:59:13.459Z,55.40
2018-10-18T17:01:17.221Z,50.83
2018-10-18T17:03:20.974Z,52.93
2018-10-18T17:05:24.720Z,59.63
2018-10-18T17:07:28.465Z,71.30
2018-10-18T17:09:32.180Z,65.60
2018-10-18T17:11:35.981Z,52.77
2018-10-18T17:13:39.645Z,59.57
2018-10-18T17:15:43.339Z,60.67
2018-10-18T17:17:47.159Z,54.40
2018-10-18T17:19:51.083Z,59.57
2018-10-18T17:21:54.947Z,61.37
2018-10-18T17:23:58.762Z,65.00
2018-10-18T17:26:02.555Z,61.53
2018-10-18T17:28:06.332Z,62.90
2018-10-18T17:30:10.733Z,64.47
2018-10-18T17:32:14.768Z,69.73
2018-10-18T17:34:18.874Z,69.07
2018-10-18T17:36:22.896Z,69.57
2018-10-18T17:38:26.977Z,70.60
2018-10-18T17:40:30.713Z,72.27
2018-10-18T17:42:34.549Z,75.97
2018-10-18T17:44:38.233Z,69.33
2018-10-18T17:46:41.991Z,72.40
2018-10-18T17:48:46.445Z,63.70
2018-10-18T17:50:50.212Z,75.43
2018-10-18T17:52:53.984Z,64.03
2018-10-18T17:54:57.674Z,74.17
2018-10-18T17:57:01.490Z,64.17
2018-10-18T17:59:07.953Z,67.03
2018-10-18T18:01:13.321Z,78.10
2018-10-18T18:03:17.494Z,81.60
2018-10-18T18:05:21.978Z,76.43
2018-10-18T18:07:26.246Z,76.30
2018-10-18T18:09:31.441Z,74.30
2018-10-18T18:11:35.719Z,72.37
2018-10-18T18:13:40.284Z,75.43
2018-10-18T18:15:44.186Z,73.60
2018-10-18T18:17:48.019Z,76.47
2018-10-18T18:19:51.931Z,78.33
2018-10-18T18:21:55.742Z,85.40
2018-10-18T18:24:00.342Z,77.93
2018-10-18T18:26:04.276Z,75.60
2018-10-18T18:28:08.167Z,83.60
2018-10-18T18:30:14.078Z,80.60
2018-10-18T18:32:18.281Z,64.50
2018-10-18T18:34:22.004Z,80.57
2018-10-18T18:36:25.809Z,90.03
2018-10-18T18:38:29.560Z,77.70
2018-10-18T18:40:33.507Z,85.63
2018-10-18T18:42:37.660Z,75.63
2018-10-18T18:44:41.368Z,76.77
2018-10-18T18:46:45.388Z,83.80
2018-10-18T18:48:49.557Z,80.77
2018-10-18T18:50:53.502Z,83.60
2018-10-18T18:52:57.473Z,76.27
2018-10-18T18:55:02.325Z,78.30
2018-10-18T18:57:07.379Z,86.30
2018-10-18T18:59:12.735Z,86.67
2018-10-18T19:01:17.537Z,78.60
2018-10-18T19:03:21.544Z,80.37
2018-10-18T19:05:25.965Z,81.53
2018-10-18T19:07:29.701Z,83.90
2018-10-18T19:09:33.427Z,83.83
2018-10-18T19:11:37.342Z,86.50
2018-10-18T19:13:41.058Z,89.03
2018-10-18T19:15:44.801Z,89.80
2018-10-18T19:17:48.569Z,86.90
2018-10-18T19:19:52.290Z,86.33
2018-10-18T19:21:56.031Z,100.60
2018-10-18T19:23:59.823Z,93.10
2018-10-18T19:26:04.144Z,91.30
2018-10-18T19:28:08.040Z,94.33
2018-10-18T19:30:12.956Z,91.70
2018-10-18T19:32:17.209Z,90.17
2018-10-18T19:34:22.295Z,96.13
2018-10-18T19:36:26.047Z,89.77
2018-10-18T19:38:32.448Z,95.23
2018-10-18T19:40:37.175Z,106.70
2018-10-18T19:42:41.103Z,99.00
2018-10-18T19:44:45.136Z,100.37
2018-10-18T19:46:49.591Z,94.70
2018-10-18T19:48:53.393Z,91.83
2018-10-18T19:50:57.100Z,96.90
2018-10-18T19:53:00.939Z,89.93
2018-10-18T19:55:06.854Z,99.83
2018-10-18T19:57:10.595Z,93.37
2018-10-18T19:59:14.351Z,103.97
2018-10-18T20:01:18.132Z,102.27
2018-10-18T20:03:22.232Z,95.33
2018-10-18T20:05:25.979Z,82.10
2018-10-18T20:07:29.961Z,82.20
2018-10-18T20:09:34.255Z,85.63
2018-10-18T20:11:37.924Z,91.10
2018-10-18T20:13:41.650Z,82.90
2018-10-18T20:15:45.472Z,86.53
2018-10-18T20:17:49.222Z,78.73
2018-10-18T20:19:53.053Z,91.83
2018-10-18T20:21:56.834Z,85.37
2018-10-18T20:24:00.589Z,82.90
2018-10-18T20:26:04.804Z,85.50
2018-10-18T20:28:08.180Z,84.87
2018-10-18T20:30:15.377Z,85.57
2018-10-18T20:32:20.036Z,102.00
2018-10-18T20:34:23.736Z,86.63
2018-10-18T20:36:27.577Z,107.50
2018-10-18T20:38:31.303Z,92.70
2018-10-18T20:40:35.081Z,90.10
2018-10-18T20:42:38.825Z,84.30
2018-10-18T20:44:42.841Z,95.03
2018-10-18T20:46:46.734Z,84.37
2018-10-18T20:48:50.308Z,93.13
2018-10-18T20:50:54.088Z,92.53
2018-10-18T20:52:58.464Z,84.03
2018-10-18T20:55:02.171Z,93.20
2018-10-18T20:57:06.078Z,85.73
2018-10-18T20:59:09.718Z,84.47
2018-10-18T21:01:13.492Z,83.43
2018-10-18T21:03:19.211Z,86.63
2018-10-18T21:05:23.171Z,86.77
2018-10-18T21:07:26.986Z,91.80
2018-10-18T21:09:30.760Z,86.70
2018-10-18T21:11:34.448Z,84.80
2018-10-18T21:13:38.354Z,87.13
2018-10-18T21:15:43.219Z,93.50
2018-10-18T21:17:47.041Z,75.10
2018-10-18T21:19:50.998Z,83.63
2018-10-18T21:21:54.838Z,81.67
2018-10-18T21:23:58.466Z,86.00
2018-10-18T21:26:03.019Z,67.63
2018-10-18T21:28:06.839Z,69.50
2018-10-18T21:30:10.762Z,75.73
2018-10-18T21:32:14.473Z,75.10
2018-10-18T21:34:18.298Z,71.67
2018-10-18T21:36:22.345Z,61.83
2018-10-18T21:38:26.111Z,66.10
2018-10-18T21:40:29.847Z,53.47
2018-10-18T21:42:33.634Z,55.57
2018-10-18T21:44:38.054Z,64.23
2018-10-18T21:46:41.784Z,68.73
2018-10-18T21:48:46.051Z,54.67
2018-10-18T21:50:49.813Z,58.73
2018-10-18T21:52:53.633Z,55.23
2018-10-18T21:54:57.349Z,55.20
2018-10-18T21:57:01.168Z,58.47
2018-10-18T21:59:04.987Z,61.13
2018-10-18T22:01:08.767Z,54.97
2018-10-18T22:03:12.705Z,54.40
2018-10-18T22:05:16.533Z,59.10
2018-10-18T22:07:20.237Z,61.30
2018-10-18T22:09:23.937Z,55.80
2018-10-18T22:11:27.639Z,51.30
2018-10-18T22:13:31.445Z,47.00
2018-10-18T22:15:35.220Z,53.23
2018-10-18T22:17:38.949Z,48.20
2018-10-18T22:19:42.664Z,55.00
2018-10-18T22:21:46.412Z,53.67
2018-10-18T22:23:50.140Z,52.70
2018-10-18T22:25:53.958Z,50.53
2018-10-18T22:27:57.690Z,49.63
2018-10-18T22:30:01.461Z,55.87
2018-10-18T22:32:05.524Z,55.50
2018-10-18T22:34:09.277Z,50.53
2018-10-18T22:36:13.122Z,57.37
2018-10-18T22:38:16.795Z,53.10
2018-10-18T22:40:20.541Z,46.60
2018-10-18T22:42:24.251Z,45.57
2018-10-18T22:44:28.007Z,46.40
2018-10-18T22:46:31.825Z,50.80
2018-10-18T22:48:35.527Z,48.37
2018-10-18T22:50:39.265Z,38.30
2018-10-18T22:52:43.008Z,43.43
2018-10-18T22:54:47.328Z,47.10
2018-10-18T22:56:51.112Z,47.43
2018-10-18T22:58:54.814Z,49.83
2018-10-18T23:00:58.570Z,51.93
2018-10-18T23:03:02.456Z,42.20
2018-10-18T23:05:06.317Z,44.10
2018-10-18T23:07:10.009Z,46.93
2018-10-18T23:09:13.838Z,51.93
2018-10-18T23:11:17.445Z,51.80
2018-10-18T23:13:21.190Z,49.93
2018-10-18T23:15:24.888Z,47.67
2018-10-18T23:17:28.652Z,46.73
2018-10-18T23:19:32.320Z,51.43
2018-10-18T23:21:36.012Z,56.50
2018-10-18T23:23:39.816Z,46.80
2018-10-18T23:25:43.594Z,49.87
2018-10-18T23:27:47.365Z,53.00
2018-10-18T23:29:51.085Z,47.90
2018-10-18T23:31:55.213Z,55.03
2018-10-18T23:33:58.893Z,50.33
2018-10-18T23:36:02.902Z,47.33
2018-10-18T23:38:08.262Z,44.63
2018-10-18T23:40:11.973Z,50.60
2018-10-18T23:42:15.753Z,46.73
2018-10-18T23:44:19.483Z,47.70
2018-10-18T23:46:23.172Z,44.17
2018-10-18T23:48:26.925Z,47.43
2018-10-18T23:50:30.599Z,46.67
2018-10-18T23:52:34.448Z,43.20
2018-10-18T23:54:38.433Z,41.50
2018-10-18T23:56:42.129Z,47.43
2018-10-18T23:58:45.857Z,45.10
